Time;durP1;ratioP1;P1;durP2;ratioP2;P2;SDS_P1;SDS_P2;PMS_P1;PMS_P2;Temp;Humidity;BMP_temperature;BMP_pressure;BME280_temperature;BME280_humidity;BME280_pressure;Samples;Min_cycle;Max_cycle;Signal;HPM_P1;HPM_P2
2022/11/26 00:00:47;;;;;;;23.83;16.40;;;;;;;6.92;100.00;101426.47;5048954;28;20052;-62
2022/11/26 00:03:14;;;;;;;27.70;18.65;;;;;;;6.90;100.00;101435.31;5057689;28;20067;-63
2022/11/26 00:05:43;;;;;;;35.08;20.73;;;;;;;6.85;100.00;101425.81;5052829;28;20036;-63
2022/11/26 00:08:19;;;;;;;29.90;20.23;;;;;;;6.84;100.00;101431.09;5045770;28;20053;-61
2022/11/26 00:10:52;;;;;;;36.42;20.75;;;;;;;6.83;100.00;101432.84;5048310;28;20408;-63
2022/11/26 00:13:24;;;;;;;30.75;19.65;;;;;;;6.84;100.00;101428.47;5045459;28;20067;-64
2022/11/26 00:15:52;;;;;;;28.40;19.75;;;;;;;6.91;100.00;101431.78;5049280;28;20045;-63
2022/11/26 00:18:19;;;;;;;30.20;20.25;;;;;;;6.91;100.00;101435.25;5047702;28;20462;-63
2022/11/26 00:20:49;;;;;;;41.42;22.48;;;;;;;6.94;100.00;101436.91;5048703;28;20064;-63
2022/11/26 00:23:22;;;;;;;35.70;20.73;;;;;;;6.93;100.00;101443.03;5051278;28;20063;-63
2022/11/26 00:25:58;;;;;;;38.17;22.63;;;;;;;6.91;100.00;101435.25;5031216;28;20045;-63
2022/11/26 00:28:33;;;;;;;36.00;20.95;;;;;;;6.96;100.00;101448.19;5053126;28;20049;-63
2022/11/26 00:31:05;;;;;;;43.83;23.02;;;;;;;6.95;100.00;101442.09;5053737;28;20127;-63
2022/11/26 00:33:33;;;;;;;41.28;22.80;;;;;;;6.92;100.00;101449.19;5047940;28;20310;-62
2022/11/26 00:36:11;;;;;;;36.10;22.10;;;;;;;6.90;100.00;101446.63;5047944;28;20057;-64
2022/11/26 00:38:38;;;;;;;37.17;20.45;;;;;;;6.91;100.00;101450.09;5045862;28;20127;-62
2022/11/26 00:41:16;;;;;;;36.22;22.73;;;;;;;6.91;100.00;101450.94;5053492;28;20075;-62
2022/11/26 00:43:44;;;;;;;38.20;22.30;;;;;;;6.91;100.00;101450.94;5043219;28;20063;-63
2022/11/26 00:46:15;;;;;;;40.15;21.27;;;;;;;6.95;100.00;101456.94;5050192;28;20651;-62
2022/11/26 00:48:43;;;;;;;40.45;22.40;;;;;;;6.93;100.00;101462.22;5043111;28;20049;-63
2022/11/26 00:51:22;;;;;;;41.10;25.15;;;;;;;6.93;100.00;101467.44;5048511;28;20053;-63
2022/11/26 00:53:54;;;;;;;42.35;22.83;;;;;;;6.94;100.00;101473.56;5051433;28;20341;-63
2022/11/26 00:56:22;;;;;;;45.72;24.45;;;;;;;6.96;100.00;101469.97;5049584;28;20132;-63
2022/11/26 00:58:50;;;;;;;37.33;23.30;;;;;;;6.96;100.00;101469.97;5053020;28;20140;-62
2022/11/26 01:01:19;;;;;;;44.10;23.42;;;;;;;6.98;100.00;101467.31;5054283;28;20065;-63
2022/11/26 01:03:47;;;;;;;46.13;23.48;;;;;;;6.98;100.00;101465.56;5059272;28;20052;-62
2022/11/26 01:06:30;;;;;;;38.53;22.42;;;;;;;6.98;100.00;101480.41;5052797;28;20075;-62
2022/11/26 01:08:57;;;;;;;48.15;23.05;;;;;;;6.99;100.00;101488.22;5046793;28;20412;-62
2022/11/26 01:11:25;;;;;;;45.00;24.08;;;;;;;7.01;100.00;101488.16;5052804;28;20420;-62
2022/11/26 01:13:53;;;;;;;39.45;22.80;;;;;;;6.98;100.00;101489.13;5037981;28;20060;-61
2022/11/26 01:16:28;;;;;;;43.55;22.77;;;;;;;6.99;100.00;101490.84;5054610;28;20049;-62
2022/11/26 01:18:57;;;;;;;42.30;23.90;;;;;;;6.99;100.00;101500.47;5051104;28;20045;-61
2022/11/26 01:21:26;;;;;;;42.95;23.05;;;;;;;6.97;100.00;101502.25;5053851;28;20053;-62
2022/11/26 01:23:53;;;;;;;46.83;24.00;;;;;;;7.01;100.00;101501.25;5060764;28;20059;-61
2022/11/26 01:26:26;;;;;;;39.78;22.02;;;;;;;7.09;100.00;101507.97;5051793;28;20084;-62
2022/11/26 01:28:54;;;;;;;44.15;23.42;;;;;;;7.03;100.00;101502.09;5034862;28;20095;-62
2022/11/26 01:31:23;;;;;;;40.40;22.73;;;;;;;7.02;100.00;101509.06;5034585;28;20138;-62
2022/11/26 01:33:51;;;;;;;47.13;23.98;;;;;;;7.02;100.00;101511.66;5057997;28;20059;-62
2022/11/26 01:36:21;;;;;;;41.50;23.65;;;;;;;6.99;100.00;101503.94;5051693;28;20140;-62
2022/11/26 01:38:51;;;;;;;42.72;23.45;;;;;;;7.01;100.00;101509.09;5057335;28;20123;-61
2022/11/26 01:41:33;;;;;;;42.55;23.73;;;;;;;7.03;100.00;101521.25;5053881;28;20071;-62
2022/11/26 01:44:00;;;;;;;52.17;24.88;;;;;;;7.02;100.00;101518.66;5048000;28;20324;-62
2022/11/26 01:46:29;;;;;;;47.50;25.45;;;;;;;7.08;100.00;101515.88;5047742;28;20224;-61
2022/11/26 01:49:26;;;;;;;43.08;23.55;;;;;;;7.05;100.00;101516.81;5061744;28;20053;-61
2022/11/26 01:52:02;;;;;;;51.47;26.48;;;;;;;7.05;100.00;101518.59;5038747;28;20135;-61
2022/11/26 01:54:30;;;;;;;47.67;24.60;;;;;;;7.08;100.00;101526.38;5057962;28;20060;-61
2022/11/26 01:57:06;;;;;;;44.10;23.73;;;;;;;7.13;100.00;101526.22;5051582;28;20059;-61
2022/11/26 01:59:36;;;;;;;45.00;24.38;;;;;;;7.15;100.00;101524.41;5039084;28;20605;-62
2022/11/26 02:02:03;;;;;;;47.55;25.65;;;;;;;7.11;100.00;101526.25;5048376;28;20064;-62
2022/11/26 02:04:37;;;;;;;46.28;26.30;;;;;;;7.14;100.00;101528.78;5051548;28;20060;-62
2022/11/26 02:07:04;;;;;;;48.70;25.95;;;;;;;7.16;100.00;101521.75;5051252;28;20045;-61
2022/11/26 02:09:32;;;;;;;50.60;25.67;;;;;;;7.10;100.00;101528.00;5057679;28;20052;-62
2022/11/26 02:11:59;;;;;;;46.72;23.90;;;;;;;7.09;100.00;101526.31;5052711;28;20294;-62
2022/11/26 02:14:31;;;;;;;49.85;26.15;;;;;;;7.07;100.00;101530.75;5057552;28;20063;-62
2022/11/26 02:17:04;;;;;;;49.50;25.23;;;;;;;7.07;100.00;101529.88;5050572;28;20037;-62
2022/11/26 02:20:05;;;;;;;51.72;25.67;;;;;;;7.06;100.00;101531.63;5036589;28;20526;-62
2022/11/26 02:22:50;;;;;;;55.83;25.50;;;;;;;7.08;100.00;101544.69;5048055;28;20138;-62
2022/11/26 02:25:31;;;;;;;62.35;26.60;;;;;;;7.07;100.00;101543.84;5051587;28;20455;-62
2022/11/26 02:28:14;;;;;;;59.25;26.30;;;;;;;7.07;100.00;101551.69;5049061;28;20670;-62
2022/11/26 02:30:49;;;;;;;58.58;24.13;;;;;;;7.10;100.00;101551.59;5050435;28;20537;-62
2022/11/26 02:33:21;;;;;;;57.17;27.23;;;;;;;7.13;100.00;101555.88;5049347;28;20076;-62
2022/11/26 02:35:55;;;;;;;61.50;25.95;;;;;;;7.13;100.00;101560.25;5048542;28;20571;-62
2022/11/26 02:38:24;;;;;;;55.17;24.67;;;;;;;7.14;100.00;101565.44;5049250;28;20056;-62
2022/11/26 02:40:51;;;;;;;51.65;22.83;;;;;;;7.15;100.00;101567.16;5051080;28;20049;-62
2022/11/26 02:43:19;;;;;;;50.97;23.75;;;;;;;7.16;100.00;101568.91;5050335;28;20539;-62
2022/11/26 02:45:54;;;;;;;44.85;22.55;;;;;;;7.18;100.00;101568.84;5049645;28;20052;-62
2022/11/26 02:48:26;;;;;;;52.83;25.42;;;;;;;7.18;100.00;101564.44;5057261;28;20056;-62
2022/11/26 02:50:57;;;;;;;53.33;25.00;;;;;;;7.16;100.00;101565.38;5049033;28;20059;-62
2022/11/26 02:53:26;;;;;;;54.83;25.13;;;;;;;7.21;100.00;101572.22;5057369;28;20059;-62
2022/11/26 02:56:07;;;;;;;57.20;27.48;;;;;;;7.19;100.00;101570.53;5047747;28;20541;-62
2022/11/26 02:58:34;;;;;;;57.50;26.85;;;;;;;7.20;100.00;101578.34;5031615;28;20132;-60
2022/11/26 03:01:06;;;;;;;74.05;30.40;;;;;;;7.17;100.00;101575.00;5050110;28;20166;-63
2022/11/26 03:03:36;;;;;;;73.43;33.13;;;;;;;7.21;100.00;101571.38;5032112;28;20519;-61
2022/11/26 03:06:08;;;;;;;68.15;30.88;;;;;;;7.15;100.00;101566.31;5053416;28;20045;-62
2022/11/26 03:08:36;;;;;;;71.43;29.48;;;;;;;7.15;100.00;101567.16;5037263;28;20052;-60
2022/11/26 03:11:04;;;;;;;71.95;31.73;;;;;;;7.18;100.00;101564.44;5057866;28;20401;-60
2022/11/26 03:13:31;;;;;;;68.22;31.48;;;;;;;7.19;100.00;101566.16;5049850;28;20056;-62
2022/11/26 03:15:58;;;;;;;74.53;33.03;;;;;;;7.19;100.00;101567.94;5052916;28;20056;-63
2022/11/26 03:18:26;;;;;;;68.03;32.75;;;;;;;7.19;100.00;101570.53;5053064;28;20306;-63
2022/11/26 03:20:53;;;;;;;61.67;29.42;;;;;;;7.20;100.00;101574.88;5047797;28;20045;-61
2022/11/26 03:23:20;;;;;;;61.20;29.33;;;;;;;7.18;100.00;101581.94;5048561;28;20284;-62
2022/11/26 03:25:47;;;;;;;66.38;29.95;;;;;;;7.15;100.00;101585.47;5054018;28;20484;-61
2022/11/26 03:28:15;;;;;;;61.63;31.02;;;;;;;7.16;100.00;101588.97;5050102;28;20459;-62
2022/11/26 03:30:42;;;;;;;65.63;31.05;;;;;;;7.15;100.00;101590.72;5049346;28;20462;-62
2022/11/26 03:33:09;;;;;;;59.38;31.20;;;;;;;7.17;100.00;101593.31;5049753;28;20057;-62
2022/11/26 03:35:36;;;;;;;67.32;31.27;;;;;;;7.15;100.00;101600.34;5049545;28;20049;-61
2022/11/26 03:38:03;;;;;;;66.93;30.10;;;;;;;7.17;100.00;101599.41;5054521;28;20128;-62
2022/11/26 03:40:30;;;;;;;65.88;32.00;;;;;;;7.18;100.00;101605.50;5050884;28;20068;-62
2022/11/26 03:42:58;;;;;;;79.35;35.55;;;;;;;7.18;100.00;101601.13;5048780;28;20045;-63
2022/11/26 03:45:25;;;;;;;68.38;32.47;;;;;;;7.20;100.00;101606.31;5051169;28;20057;-63
2022/11/26 03:47:52;;;;;;;72.00;34.47;;;;;;;7.17;100.00;101603.78;5051335;28;20051;-63
2022/11/26 03:50:19;;;;;;;70.43;35.72;;;;;;;7.18;100.00;101603.75;5048781;28;20132;-63
2022/11/26 03:52:46;;;;;;;80.20;35.20;;;;;;;7.19;100.00;101612.44;5048821;28;20433;-62
2022/11/26 03:55:13;;;;;;;81.68;37.78;;;;;;;7.19;100.00;101601.97;5050539;28;20517;-62
2022/11/26 03:57:41;;;;;;;74.80;36.85;;;;;;;7.26;100.00;101607.00;5052443;28;20056;-62
2022/11/26 04:00:09;;;;;;;90.18;38.10;;;;;;;7.25;100.00;101617.50;5052183;28;20162;-63
2022/11/26 04:02:36;;;;;;;85.65;37.95;;;;;;;7.24;100.00;101619.25;5048570;28;20053;-62
2022/11/26 04:05:04;;;;;;;81.03;36.55;;;;;;;7.32;100.00;101621.66;5048696;28;20061;-62
2022/11/26 04:07:31;;;;;;;92.50;39.13;;;;;;;7.28;100.00;101633.13;5031219;28;20053;-62
2022/11/26 04:09:58;;;;;;;83.88;36.95;;;;;;;7.34;100.00;101628.59;5043987;28;20052;-62
2022/11/26 04:12:25;;;;;;;96.07;40.92;;;;;;;7.31;100.00;101633.91;5050435;28;20071;-62
2022/11/26 04:14:52;;;;;;;93.35;38.00;;;;;;;7.27;100.00;101634.91;5048321;28;20422;-62
2022/11/26 04:17:20;;;;;;;86.47;37.83;;;;;;;7.24;100.00;101636.75;5057146;28;20060;-62
2022/11/26 04:19:47;;;;;;;92.95;37.83;;;;;;;7.21;100.00;101629.84;5047116;28;20513;-62
2022/11/26 04:22:14;;;;;;;85.85;37.47;;;;;;;7.21;100.00;101629.00;5051716;28;20164;-62
2022/11/26 04:24:41;;;;;;;77.93;34.70;;;;;;;7.21;100.00;101637.69;5044536;28;20052;-62
2022/11/26 04:27:08;;;;;;;88.10;34.47;;;;;;;7.24;100.00;101642.84;5048415;28;20048;-62
2022/11/26 04:29:36;;;;;;;76.25;33.72;;;;;;;7.31;100.00;101643.53;5047721;28;20076;-63
2022/11/26 04:32:04;;;;;;;93.78;35.50;;;;;;;7.28;100.00;101654.94;5047636;28;20053;-62
2022/11/26 04:34:31;;;;;;;88.68;35.65;;;;;;;7.28;100.00;101657.56;5054829;28;20049;-62
2022/11/26 04:36:58;;;;;;;81.85;35.30;;;;;;;7.31;100.00;101656.63;5048453;28;20051;-62
2022/11/26 04:39:25;;;;;;;84.65;36.33;;;;;;;7.40;100.00;101661.59;5050312;28;20049;-62
2022/11/26 04:41:53;;;;;;;80.95;35.47;;;;;;;7.40;100.00;101665.97;5044496;28;20051;-62
2022/11/26 04:44:20;;;;;;;89.30;36.42;;;;;;;7.36;100.00;101667.81;5045718;28;20123;-62
2022/11/26 04:46:47;;;;;;;77.43;36.85;;;;;;;7.32;100.00;101668.81;5048692;28;20056;-62
2022/11/26 04:49:14;;;;;;;74.03;33.03;;;;;;;7.33;100.00;101667.91;5047354;28;20379;-62
2022/11/26 04:51:41;;;;;;;96.38;35.30;;;;;;;7.33;100.00;101675.75;5047916;28;20060;-61
2022/11/26 04:54:08;;;;;;;81.82;35.72;;;;;;;7.33;100.00;101678.38;5049646;28;20055;-62
2022/11/26 04:56:39;;;;;;;69.95;34.45;;;;;;;7.29;100.00;101685.47;5049098;28;20049;-62
2022/11/26 04:59:06;;;;;;;68.35;33.47;;;;;;;7.31;100.00;101685.44;5056363;22;20064;-86
2022/11/26 05:01:34;;;;;;;72.25;32.80;;;;;;;7.32;100.00;101685.38;4997737;28;20107;-87
2022/11/26 05:04:04;;;;;;;69.60;32.40;;;;;;;7.32;100.00;101693.25;5001168;28;20129;-86
2022/11/26 05:06:32;;;;;;;68.30;31.60;;;;;;;7.33;100.00;101704.56;4994771;28;20105;-86
2022/11/26 05:08:59;;;;;;;72.20;30.83;;;;;;;7.33;100.00;101710.66;5001157;28;20081;-86
2022/11/26 05:11:26;;;;;;;64.53;30.45;;;;;;;7.32;100.00;101706.34;4987023;28;20046;-86
2022/11/26 05:13:54;;;;;;;64.13;31.70;;;;;;;7.33;100.00;101713.28;5004966;23;20424;-62
2022/11/26 05:16:21;;;;;;;59.88;29.58;;;;;;;7.34;100.00;101708.94;5025774;28;20077;-63
2022/11/26 05:18:48;;;;;;;51.10;27.52;;;;;;;7.40;100.00;101721.84;5025423;28;20148;-62
2022/11/26 05:21:15;;;;;;;55.28;28.58;;;;;;;7.42;100.00;101721.78;5002566;28;20600;-62
2022/11/26 05:23:42;;;;;;;53.95;27.63;;;;;;;7.39;100.00;101728.00;5024551;28;20072;-62
2022/11/26 05:26:10;;;;;;;57.63;28.02;;;;;;;7.40;100.00;101724.47;5024541;28;20148;-62
2022/11/26 05:28:37;;;;;;;60.35;29.33;;;;;;;7.38;100.00;101717.53;5024850;28;20064;-62
2022/11/26 05:31:04;;;;;;;56.13;28.88;;;;;;;7.39;100.00;101720.13;5013580;28;20053;-62
2022/11/26 05:33:31;;;;;;;54.83;26.45;;;;;;;7.39;100.00;101735.84;5010648;28;20048;-62
2022/11/26 05:35:58;;;;;;;44.95;25.75;;;;;;;7.36;100.00;101725.44;5027985;28;20140;-62
2022/11/26 05:38:25;;;;;;;49.17;25.98;;;;;;;7.38;100.00;101736.72;5020742;28;20053;-63
2022/11/26 05:40:53;;;;;;;45.78;27.15;;;;;;;7.35;100.00;101749.94;5018823;28;20136;-62
2022/11/26 05:43:20;;;;;;;49.03;28.17;;;;;;;7.33;100.00;101749.97;5030663;28;20140;-62
2022/11/26 05:45:47;;;;;;;50.58;28.00;;;;;;;7.36;100.00;101744.66;5030404;28;20054;-63
2022/11/26 05:48:15;;;;;;;57.40;27.75;;;;;;;7.32;100.00;101750.00;5030312;28;20061;-62
2022/11/26 05:50:42;;;;;;;41.15;24.30;;;;;;;7.34;100.00;101753.47;5027333;28;20211;-62
2022/11/26 05:53:10;;;;;;;51.15;25.50;;;;;;;7.28;100.00;101754.47;5022698;28;20145;-62
2022/11/26 05:55:37;;;;;;;45.97;24.00;;;;;;;7.28;100.00;101756.22;5025618;28;20563;-62
2022/11/26 05:58:04;;;;;;;61.00;26.23;;;;;;;7.25;100.00;101757.19;5028243;28;20472;-63
2022/11/26 06:00:31;;;;;;;44.67;22.83;;;;;;;7.35;100.00;101763.03;5024065;28;20409;-63
2022/11/26 06:02:58;;;;;;;39.85;22.13;;;;;;;7.31;100.00;101764.88;5025708;28;20060;-63
2022/11/26 06:05:26;;;;;;;47.38;23.65;;;;;;;7.28;100.00;101764.94;5022149;28;20061;-62
2022/11/26 06:07:53;;;;;;;41.60;21.98;;;;;;;7.27;100.00;101772.84;5027968;28;20052;-63
2022/11/26 06:10:20;;;;;;;47.10;21.05;;;;;;;7.24;100.00;101771.16;5028101;28;20057;-61
2022/11/26 06:12:48;;;;;;;41.45;21.92;;;;;;;7.23;100.00;101768.59;5027748;28;20053;-63
2022/11/26 06:15:15;;;;;;;41.67;20.88;;;;;;;7.29;100.00;101784.13;5027840;28;20053;-63
2022/11/26 06:17:42;;;;;;;48.30;23.05;;;;;;;7.27;100.00;101785.94;5019558;28;20105;-64
2022/11/26 06:20:10;;;;;;;38.90;20.48;;;;;;;7.29;100.00;101786.75;5025818;28;20065;-63
2022/11/26 06:22:38;;;;;;;50.10;22.00;;;;;;;7.27;100.00;101794.66;5030653;28;20059;-63
2022/11/26 06:25:09;;;;;;;41.55;20.65;;;;;;;7.24;100.00;101792.13;5030023;28;20064;-63
2022/11/26 06:27:36;;;;;;;46.47;21.13;;;;;;;7.31;100.00;101800.69;5016719;28;20054;-62
2022/11/26 06:30:06;;;;;;;42.47;19.98;;;;;;;7.29;100.00;101808.56;5012012;28;20046;-62
2022/11/26 06:32:33;;;;;;;36.63;19.55;;;;;;;7.27;100.00;101815.63;5013429;28;20061;-62
2022/11/26 06:35:00;;;;;;;42.22;20.15;;;;;;;7.28;100.00;101816.47;5029668;28;20574;-63
2022/11/26 06:37:27;;;;;;;52.80;21.45;;;;;;;7.30;100.00;101819.94;5024307;28;20410;-62
2022/11/26 06:39:55;;;;;;;37.88;19.08;;;;;;;7.28;100.00;101816.47;5030067;28;20149;-62
2022/11/26 06:42:22;;;;;;;49.30;19.88;;;;;;;7.28;100.00;101827.81;5033883;28;20059;-63
2022/11/26 06:44:49;;;;;;;38.90;19.73;;;;;;;7.30;100.00;101828.66;5026623;28;20140;-63
2022/11/26 06:47:16;;;;;;;34.45;17.52;;;;;;;7.32;100.00;101831.22;5030217;28;20053;-63
2022/11/26 06:49:43;;;;;;;39.25;18.63;;;;;;;7.33;100.00;101836.41;5026460;28;20053;-63
2022/11/26 06:52:12;;;;;;;36.85;17.13;;;;;;;7.35;100.00;101839.88;5035416;28;20064;-63
2022/11/26 06:54:39;;;;;;;40.65;18.90;;;;;;;7.29;100.00;101840.00;5029122;28;20041;-62
2022/11/26 06:57:06;;;;;;;42.03;17.48;;;;;;;7.30;100.00;101840.88;5021593;28;20053;-63
2022/11/26 06:59:34;;;;;;;38.80;18.95;;;;;;;7.28;100.00;101842.66;5028189;28;20064;-63
2022/11/26 07:02:01;;;;;;;40.92;17.52;;;;;;;7.28;100.00;101848.75;5029998;28;20056;-64
2022/11/26 07:04:28;;;;;;;45.63;19.27;;;;;;;7.24;100.00;101849.75;5028965;28;20115;-64
2022/11/26 07:06:56;;;;;;;57.17;19.80;;;;;;;7.30;100.00;101851.38;5028275;28;20225;-63
2022/11/26 07:09:23;;;;;;;43.40;19.63;;;;;;;7.36;100.00;101861.69;5034511;28;20045;-64
2022/11/26 07:11:50;;;;;;;40.83;17.30;;;;;;;7.31;100.00;101866.19;5029296;28;20449;-64
2022/11/26 07:14:17;;;;;;;47.20;18.13;;;;;;;7.27;100.00;101870.63;5011659;28;20045;-64
2022/11/26 07:16:44;;;;;;;42.70;18.13;;;;;;;7.28;100.00;101864.47;5028881;28;20071;-61
2022/11/26 07:19:12;;;;;;;40.40;18.80;;;;;;;7.28;100.00;101872.34;5010614;28;20744;-62
2022/11/26 07:21:40;;;;;;;42.05;19.35;;;;;;;7.27;100.00;101883.72;5012584;28;20051;-63
2022/11/26 07:24:07;;;;;;;40.22;17.63;;;;;;;7.26;100.00;101878.53;5025187;28;20054;-63
2022/11/26 07:26:34;;;;;;;29.42;17.00;;;;;;;7.27;100.00;101872.38;5029600;28;20421;-63
2022/11/26 07:29:02;;;;;;;49.53;20.80;;;;;;;7.30;100.00;101874.94;5030985;28;20425;-63
2022/11/26 07:31:29;;;;;;;36.95;18.27;;;;;;;7.28;100.00;101881.97;5016715;28;20070;-63
2022/11/26 07:33:56;;;;;;;42.35;16.75;;;;;;;7.28;100.00;101881.97;5025970;28;20057;-64
2022/11/26 07:36:25;;;;;;;42.90;18.27;;;;;;;7.25;100.00;101882.03;5008603;28;20056;-62
2022/11/26 07:38:57;;;;;;;45.75;16.90;;;;;;;7.31;100.00;101885.38;5005734;28;20140;-63
2022/11/26 07:41:25;;;;;;;39.25;16.30;;;;;;;7.34;100.00;101882.69;5032427;28;20140;-62
2022/11/26 07:43:52;;;;;;;40.00;16.27;;;;;;;7.39;100.00;101889.56;5015347;28;20049;-63
2022/11/26 07:46:22;;;;;;;39.25;16.17;;;;;;;7.34;100.00;101893.16;5027783;28;20053;-60
2022/11/26 07:48:50;;;;;;;33.63;15.85;;;;;;;7.35;100.00;101899.25;5011628;28;20056;-61
2022/11/26 07:51:21;;;;;;;40.25;16.45;;;;;;;7.33;100.00;101895.78;5022124;28;20137;-63
2022/11/26 07:53:49;;;;;;;43.15;16.33;;;;;;;7.32;100.00;101896.69;5010707;28;20049;-63
2022/11/26 07:56:17;;;;;;;39.47;17.42;;;;;;;7.31;100.00;101901.09;5010981;28;20053;-63
2022/11/26 07:58:44;;;;;;;38.60;16.35;;;;;;;7.33;100.00;101903.66;5028549;28;20141;-63
2022/11/26 08:01:17;;;;;;;36.03;16.67;;;;;;;7.31;100.00;101905.47;5025506;28;20405;-63
2022/11/26 08:03:46;;;;;;;34.53;15.70;;;;;;;7.32;100.00;101907.19;5029009;28;20056;-63
2022/11/26 08:06:16;;;;;;;40.67;15.43;;;;;;;7.33;100.00;101909.75;5027709;28;20061;-63
2022/11/26 08:08:44;;;;;;;34.53;15.07;;;;;;;7.36;100.00;101914.94;5004877;28;20490;-62
2022/11/26 08:11:17;;;;;;;36.80;14.23;;;;;;;7.39;100.00;101918.38;5025377;28;20049;-62
2022/11/26 08:13:46;;;;;;;44.20;15.52;;;;;;;7.38;100.00;101920.13;5026446;28;20502;-62
2022/11/26 08:16:14;;;;;;;30.83;13.30;;;;;;;7.36;100.00;101928.03;5024046;28;20136;-61
2022/11/26 08:18:41;;;;;;;33.45;13.80;;;;;;;7.37;100.00;101926.25;5018390;28;20151;-63
2022/11/26 08:21:09;;;;;;;32.40;14.02;;;;;;;7.38;100.00;101930.59;5023610;28;20049;-62
2022/11/26 08:23:36;;;;;;;33.40;13.65;;;;;;;7.41;100.00;101933.16;5006373;28;20053;-62
2022/11/26 08:26:08;;;;;;;38.10;13.63;;;;;;;7.49;100.00;101939.06;5022410;28;20049;-63
2022/11/26 08:28:55;;;;;;;29.70;12.75;;;;;;;7.47;100.00;101943.47;5025964;28;20204;-63
2022/11/26 08:31:23;;;;;;;30.33;13.45;;;;;;;7.48;100.00;101945.22;5024699;28;20061;-61
2022/11/26 08:33:51;;;;;;;43.05;14.77;;;;;;;7.47;100.00;101946.09;5021842;28;20501;-62
2022/11/26 08:36:18;;;;;;;35.67;12.13;;;;;;;7.50;100.00;101943.41;5023634;28;20112;-63
2022/11/26 08:38:45;;;;;;;25.33;13.18;;;;;;;7.50;100.00;101947.78;5028407;28;20049;-62
2022/11/26 08:41:12;;;;;;;38.70;12.35;;;;;;;7.56;100.00;101958.09;5028260;28;20099;-62
2022/11/26 08:43:40;;;;;;;40.20;11.95;;;;;;;7.50;100.00;101959.13;5022704;28;20520;-62
2022/11/26 08:46:27;;;;;;;31.83;12.27;;;;;;;7.53;100.00;101959.06;5022531;28;20524;-64
2022/11/26 08:48:57;;;;;;;27.92;11.98;;;;;;;7.56;100.00;101964.19;5022804;28;20056;-64
2022/11/26 08:51:25;;;;;;;36.53;12.98;;;;;;;7.52;100.00;101967.81;5024696;28;20058;-64
2022/11/26 08:53:52;;;;;;;35.47;12.13;;;;;;;7.50;100.00;101968.75;5024515;28;20049;-64
2022/11/26 08:56:19;;;;;;;32.80;11.82;;;;;;;7.50;100.00;101963.50;5021498;28;20050;-63
2022/11/26 08:58:47;;;;;;;40.00;13.65;;;;;;;7.49;100.00;101970.50;5020733;28;20042;-62
2022/11/26 09:01:20;;;;;;;29.98;11.95;;;;;;;7.53;100.00;101982.63;5020004;28;20417;-63
2022/11/26 09:03:52;;;;;;;34.90;13.75;;;;;;;7.49;100.00;101981.00;5021140;28;20139;-63
2022/11/26 09:06:20;;;;;;;36.50;12.45;;;;;;;7.49;100.00;101982.75;5021115;28;20417;-63
2022/11/26 09:11:37;;;;;;;30.85;12.63;;;;;;;7.50;100.00;101989.72;5019120;28;20046;-64
2022/11/26 09:14:05;;;;;;;29.65;11.18;;;;;;;7.54;100.00;101992.22;5013780;28;20060;-64
2022/11/26 09:16:32;;;;;;;34.67;12.82;;;;;;;7.55;100.00;101999.16;5025929;28;20073;-63
2022/11/26 09:19:01;;;;;;;30.73;12.50;;;;;;;7.56;100.00;101995.66;5024738;28;20057;-65
2022/11/26 09:21:28;;;;;;;25.70;11.27;;;;;;;7.56;100.00;102000.03;5020904;28;20061;-63
2022/11/26 09:23:55;;;;;;;33.58;11.77;;;;;;;7.64;100.00;102007.72;5028404;28;20046;-64
2022/11/26 09:26:24;;;;;;;36.05;10.95;;;;;;;7.58;100.00;102006.97;5027111;28;20056;-64
2022/11/26 09:28:51;;;;;;;28.08;11.20;;;;;;;7.62;100.00;102007.75;5026617;28;20559;-64
2022/11/26 09:31:19;;;;;;;34.25;11.05;;;;;;;7.59;100.00;102015.69;5017617;28;20053;-64
2022/11/26 09:33:46;;;;;;;26.92;9.95;;;;;;;7.64;100.00;102010.34;5024590;28;20087;-64
2022/11/26 09:36:15;;;;;;;29.98;9.80;;;;;;;7.61;100.00;102016.53;5028466;28;20055;-65
2022/11/26 09:38:43;;;;;;;30.65;10.95;;;;;;;7.56;100.00;102016.59;5031301;28;20520;-62
2022/11/26 09:41:34;;;;;;;28.67;9.02;;;;;;;7.59;100.00;102018.31;5021780;28;20054;-63
2022/11/26 09:44:07;;;;;;;27.65;9.75;;;;;;;7.56;100.00;102031.47;5025140;28;20049;-64
2022/11/26 09:46:44;;;;;;;22.73;9.32;;;;;;;7.54;100.00;102031.53;5029592;28;20494;-63
2022/11/26 09:49:38;;;;;;;27.48;8.45;;;;;;;7.60;100.00;102031.38;5009438;28;20064;-62
2022/11/26 09:52:07;;;;;;;29.02;8.30;;;;;;;7.60;100.00;102028.75;5013189;28;20053;-64
2022/11/26 09:54:37;;;;;;;26.92;8.68;;;;;;;7.59;100.00;102048.00;5008376;28;20178;-68
2022/11/26 09:57:19;;;;;;;27.33;8.80;;;;;;;7.60;100.00;102036.59;5029278;28;20060;-63
2022/11/26 09:59:48;;;;;;;29.25;10.60;;;;;;;7.60;100.00;102039.22;5031480;28;20049;-63
2022/11/26 10:02:15;;;;;;;31.67;8.77;;;;;;;7.57;100.00;102044.56;5008819;28;20582;-63
2022/11/26 10:04:43;;;;;;;26.10;8.68;;;;;;;7.64;100.00;102044.41;5023749;28;20428;-63
2022/11/26 10:07:49;;;;;;;35.78;9.15;;;;;;;7.58;100.00;102045.41;5022405;28;20577;-65
2022/11/26 10:10:25;;;;;;;21.15;8.23;;;;;;;7.61;100.00;102053.22;5007317;28;20057;-64
2022/11/26 10:13:19;;;;;;;25.70;8.32;;;;;;;7.61;100.00;102053.22;5012696;28;20060;-64
2022/11/26 10:15:46;;;;;;;26.27;9.27;;;;;;;7.56;100.00;102050.69;5021495;28;20073;-63
2022/11/26 10:18:32;;;;;;;36.58;9.88;;;;;;;7.54;100.00;102049.88;5031180;28;20050;-63
2022/11/26 10:21:28;;;;;;;25.02;9.23;;;;;;;7.56;100.00;102053.28;5030307;28;20075;-63
2022/11/26 10:24:19;;;;;;;33.35;10.25;;;;;;;7.56;100.00;102052.44;5015480;28;20502;-63
2022/11/26 10:26:47;;;;;;;27.38;9.73;;;;;;;7.51;100.00;102049.94;5028038;28;20054;-63
2022/11/26 10:29:23;;;;;;;28.88;9.48;;;;;;;7.49;100.00;102053.50;5028929;28;20064;-63
2022/11/26 10:32:06;;;;;;;29.02;8.90;;;;;;;7.47;100.00;102052.66;5029551;28;20049;-64
2022/11/26 10:34:42;;;;;;;25.77;7.97;;;;;;;7.51;100.00;102055.16;5013634;28;20533;-63
2022/11/26 10:37:09;;;;;;;17.65;7.40;;;;;;;7.53;100.00;102057.78;5012125;28;20446;-64
2022/11/26 10:39:36;;;;;;;28.63;7.07;;;;;;;7.50;100.00;102052.59;5008687;28;20061;-64
2022/11/26 10:42:13;;;;;;;19.95;5.88;;;;;;;7.51;100.00;102064.78;5030629;28;20122;-64
2022/11/26 10:44:40;;;;;;;24.73;7.28;;;;;;;7.50;100.00;102068.31;5014550;28;20404;-64
2022/11/26 10:47:20;;;;;;;24.55;6.68;;;;;;;7.52;100.00;102064.78;5027413;28;20120;-63
2022/11/26 10:49:48;;;;;;;23.27;5.72;;;;;;;7.49;100.00;102080.56;5023816;28;20060;-63
2022/11/26 10:52:19;;;;;;;27.58;6.32;;;;;;;7.47;100.00;102079.72;5032842;28;20136;-63
2022/11/26 10:55:06;;;;;;;18.13;5.68;;;;;;;7.47;100.00;102086.72;5006350;28;20132;-64
2022/11/26 10:57:35;;;;;;;24.73;6.32;;;;;;;7.46;100.00;102083.25;5027180;28;20061;-64
2022/11/26 11:00:03;;;;;;;19.85;6.15;;;;;;;7.48;100.00;102085.84;5012030;28;20064;-64
2022/11/26 11:02:40;;;;;;;20.52;5.53;;;;;;;7.50;100.00;102094.53;5030516;28;20581;-64
2022/11/26 11:05:08;;;;;;;21.98;5.55;;;;;;;7.51;100.00;102094.47;5030087;28;20124;-63
2022/11/26 11:07:35;;;;;;;18.85;5.75;;;;;;;7.56;100.00;102091.75;5029495;28;20057;-64
2022/11/26 11:10:08;;;;;;;24.95;6.20;;;;;;;7.50;100.00;102091.91;5029612;28;20322;-64
2022/11/26 11:12:40;;;;;;;19.23;5.38;;;;;;;7.52;100.00;102084.84;5029554;28;20188;-64
2022/11/26 11:15:23;;;;;;;15.85;5.95;;;;;;;7.54;100.00;102093.56;5011218;28;20132;-64
2022/11/26 11:17:59;;;;;;;21.20;7.00;;;;;;;7.53;100.00;102097.94;5028133;28;20057;-64
2022/11/26 11:20:36;;;;;;;25.80;6.57;;;;;;;7.49;100.00;102106.75;5029313;28;20053;-64
2022/11/26 11:23:09;;;;;;;26.35;7.20;;;;;;;7.40;100.00;102095.63;5028881;28;20055;-64
2022/11/26 11:25:42;;;;;;;23.33;6.50;;;;;;;7.33;100.00;102089.66;5028384;28;20542;-64